Huvudsida
METAR-TAF:

METAR-TAF

Flygplatser :

Sandane flygplats. Anda

Sandane, Norge

latitud: 61-50N, longitud: 006-07E, höjd: 6 m

Aktuellt väderrapport

Denna rapport gjordes för 12 minuter sedan, klockan 13:20 UTC
Vind 1 kt varierande vindriktning
Temperatur 7°C
Fuktighet 87%
Tryck 1014 hPa
Sikt 10 km eller mer
Få moln på en höjd av 1400 ft

METAR: ENSD 151320Z VRB01KT 9999 FEW014 07/05 Q1014 RMK WIND 1138FT 04001KT

Tid: 15:32 (13:32 UTC)


TAF: saknas

Aktuella väderrapporter och prognoser från 4000 flygplatser (METAR- och TAF-rapporter).

De tillgängliga stationerna syns som gula och röda prickar på kartan.

För musen över prickarna för att se namnen på stationerna.

Klicka sedan för att få väderrapporter och prognoser.

För att ändra kartan: Klicka på de gröna knapparna med ett svart kors på för att zooma in; den gröna knappen med ett streck på för att zooma ut; eller på de gröna pilarna för angränsande kartor.


METAR-TAF: